sensor_id;sensor_type;location;lat;lon;timestamp;temperature;humidity
14614;DHT22;7393;51.446;6.800;2023-06-10T00:00:07;23.30;1.00
14614;DHT22;7393;51.446;6.800;2023-06-10T00:02:37;23.30;1.00
14614;DHT22;7393;51.446;6.800;2023-06-10T00:05:05;23.20;1.00
14614;DHT22;7393;51.446;6.800;2023-06-10T00:07:33;23.20;1.00
14614;DHT22;7393;51.446;6.800;2023-06-10T00:10:05;23.10;1.00
14614;DHT22;7393;51.446;6.800;2023-06-10T00:12:32;23.10;1.00
14614;DHT22;7393;51.446;6.800;2023-06-10T00:15:03;23.10;1.00
14614;DHT22;7393;51.446;6.800;2023-06-10T00:17:31;23.10;1.00
14614;DHT22;7393;51.446;6.800;2023-06-10T00:19:58;23.00;1.00
14614;DHT22;7393;51.446;6.800;2023-06-10T00:22:25;23.00;1.00
14614;DHT22;7393;51.446;6.800;2023-06-10T00:24:54;23.00;1.00
14614;DHT22;7393;51.446;6.800;2023-06-10T00:27:24;22.90;1.00
14614;DHT22;7393;51.446;6.800;2023-06-10T00:29:56;22.90;1.00
14614;DHT22;7393;51.446;6.800;2023-06-10T00:32:23;22.80;1.00
14614;DHT22;7393;51.446;6.800;2023-06-10T00:34:50;22.80;1.00
14614;DHT22;7393;51.446;6.800;2023-06-10T00:37:16;22.70;1.00
14614;DHT22;7393;51.446;6.800;2023-06-10T00:39:43;22.60;1.00
14614;DHT22;7393;51.446;6.800;2023-06-10T00:42:10;22.60;1.00
14614;DHT22;7393;51.446;6.800;2023-06-10T00:44:38;22.50;1.00
14614;DHT22;7393;51.446;6.800;2023-06-10T00:47:05;22.50;1.00
14614;DHT22;7393;51.446;6.800;2023-06-10T00:49:33;22.50;1.00
14614;DHT22;7393;51.446;6.800;2023-06-10T00:52:00;22.40;1.00
14614;DHT22;7393;51.446;6.800;2023-06-10T00:54:27;22.40;1.00
14614;DHT22;7393;51.446;6.800;2023-06-10T00:56:55;22.40;1.00
14614;DHT22;7393;51.446;6.800;2023-06-10T00:59:23;22.40;1.00
14614;DHT22;7393;51.446;6.800;2023-06-10T01:01:52;22.40;1.00
14614;DHT22;7393;51.446;6.800;2023-06-10T01:04:19;22.30;1.00
14614;DHT22;7393;51.446;6.800;2023-06-10T01:06:51;22.30;1.00
14614;DHT22;7393;51.446;6.800;2023-06-10T01:09:28;22.20;1.00
14614;DHT22;7393;51.446;6.800;2023-06-10T01:12:01;22.20;1.00
14614;DHT22;7393;51.446;6.800;2023-06-10T01:14:29;22.10;1.00
14614;DHT22;7393;51.446;6.800;2023-06-10T01:16:58;22.00;1.00
14614;DHT22;7393;51.446;6.800;2023-06-10T01:19:26;22.00;1.00
14614;DHT22;7393;51.446;6.800;2023-06-10T01:21:55;21.90;1.00
14614;DHT22;7393;51.446;6.800;2023-06-10T01:24:24;22.00;1.00
14614;DHT22;7393;51.446;6.800;2023-06-10T01:26:51;21.90;1.00
14614;DHT22;7393;51.446;6.800;2023-06-10T01:29:23;21.90;1.00
14614;DHT22;7393;51.446;6.800;2023-06-10T01:31:59;21.90;1.00
14614;DHT22;7393;51.446;6.800;2023-06-10T01:34:29;21.80;1.00
14614;DHT22;7393;51.446;6.800;2023-06-10T01:36:59;21.80;1.00
14614;DHT22;7393;51.446;6.800;2023-06-10T01:39:26;21.80;1.00
14614;DHT22;7393;51.446;6.800;2023-06-10T01:41:54;21.80;1.00
14614;DHT22;7393;51.446;6.800;2023-06-10T01:44:22;21.70;1.00
14614;DHT22;7393;51.446;6.800;2023-06-10T01:46:49;21.70;1.00
14614;DHT22;7393;51.446;6.800;2023-06-10T01:49:16;21.70;1.00
14614;DHT22;7393;51.446;6.800;2023-06-10T01:51:42;21.70;1.00
14614;DHT22;7393;51.446;6.800;2023-06-10T01:54:10;21.60;1.00
14614;DHT22;7393;51.446;6.800;2023-06-10T01:56:37;21.60;1.00
14614;DHT22;7393;51.446;6.800;2023-06-10T01:59:04;21.60;1.00
14614;DHT22;7393;51.446;6.800;2023-06-10T02:01:32;21.60;1.00
14614;DHT22;7393;51.446;6.800;2023-06-10T02:03:59;21.60;1.00
14614;DHT22;7393;51.446;6.800;2023-06-10T02:06:25;21.50;1.00
14614;DHT22;7393;51.446;6.800;2023-06-10T02:08:52;21.50;1.00
14614;DHT22;7393;51.446;6.800;2023-06-10T02:11:20;21.50;1.00
14614;DHT22;7393;51.446;6.800;2023-06-10T02:13:47;21.40;1.00
14614;DHT22;7393;51.446;6.800;2023-06-10T02:16:14;21.40;1.00
14614;DHT22;7393;51.446;6.800;2023-06-10T02:18:42;21.40;1.00
14614;DHT22;7393;51.446;6.800;2023-06-10T02:21:09;21.40;1.00
14614;DHT22;7393;51.446;6.800;2023-06-10T02:23:36;21.30;1.00
14614;DHT22;7393;51.446;6.800;2023-06-10T02:26:03;21.30;1.00
14614;DHT22;7393;51.446;6.800;2023-06-10T02:28:31;21.30;1.00
14614;DHT22;7393;51.446;6.800;2023-06-10T02:30:58;21.20;1.00
14614;DHT22;7393;51.446;6.800;2023-06-10T02:33:26;21.20;1.00
14614;DHT22;7393;51.446;6.800;2023-06-10T02:35:53;21.20;1.00
14614;DHT22;7393;51.446;6.800;2023-06-10T02:38:20;21.20;1.00
14614;DHT22;7393;51.446;6.800;2023-06-10T02:40:46;21.10;1.00
14614;DHT22;7393;51.446;6.800;2023-06-10T02:43:13;21.10;1.00
14614;DHT22;7393;51.446;6.800;2023-06-10T02:45:41;21.10;1.00
14614;DHT22;7393;51.446;6.800;2023-06-10T02:48:08;21.00;1.00
14614;DHT22;7393;51.446;6.800;2023-06-10T02:50:35;21.00;1.00
14614;DHT22;7393;51.446;6.800;2023-06-10T02:53:04;21.00;1.00
14614;DHT22;7393;51.446;6.800;2023-06-10T02:55:31;20.90;1.00
14614;DHT22;7393;51.446;6.800;2023-06-10T02:58:13;20.90;1.00
14614;DHT22;7393;51.446;6.800;2023-06-10T03:00:40;20.90;1.00
14614;DHT22;7393;51.446;6.800;2023-06-10T03:03:07;20.90;1.00
14614;DHT22;7393;51.446;6.800;2023-06-10T03:05:36;20.80;1.00
14614;DHT22;7393;51.446;6.800;2023-06-10T03:08:02;20.80;1.00
14614;DHT22;7393;51.446;6.800;2023-06-10T03:10:29;20.70;1.00
14614;DHT22;7393;51.446;6.800;2023-06-10T03:12:58;20.70;1.00
14614;DHT22;7393;51.446;6.800;2023-06-10T03:15:26;20.70;1.00
14614;DHT22;7393;51.446;6.800;2023-06-10T03:17:54;20.60;1.00
14614;DHT22;7393;51.446;6.800;2023-06-10T03:20:21;20.60;1.00
14614;DHT22;7393;51.446;6.800;2023-06-10T03:22:48;20.50;1.00
14614;DHT22;7393;51.446;6.800;2023-06-10T03:25:15;20.50;1.00
14614;DHT22;7393;51.446;6.800;2023-06-10T03:27:42;20.50;1.00
14614;DHT22;7393;51.446;6.800;2023-06-10T03:30:10;20.50;1.00
14614;DHT22;7393;51.446;6.800;2023-06-10T03:32:39;20.40;1.00
14614;DHT22;7393;51.446;6.800;2023-06-10T03:35:07;20.40;1.00
14614;DHT22;7393;51.446;6.800;2023-06-10T03:37:34;20.40;1.00
14614;DHT22;7393;51.446;6.800;2023-06-10T03:40:01;20.40;1.00
14614;DHT22;7393;51.446;6.800;2023-06-10T03:42:29;20.40;1.00
14614;DHT22;7393;51.446;6.800;2023-06-10T03:44:55;20.40;1.00
14614;DHT22;7393;51.446;6.800;2023-06-10T03:47:22;20.40;1.00
14614;DHT22;7393;51.446;6.800;2023-06-10T03:49:50;20.40;1.00
14614;DHT22;7393;51.446;6.800;2023-06-10T03:52:18;20.40;1.00
14614;DHT22;7393;51.446;6.800;2023-06-10T03:54:45;20.40;1.00
14614;DHT22;7393;51.446;6.800;2023-06-10T03:57:11;20.30;1.00
14614;DHT22;7393;51.446;6.800;2023-06-10T03:59:38;20.20;1.00
14614;DHT22;7393;51.446;6.800;2023-06-10T04:02:05;20.20;1.00
14614;DHT22;7393;51.446;6.800;2023-06-10T04:04:33;20.20;1.00
14614;DHT22;7393;51.446;6.800;2023-06-10T04:07:01;20.20;1.00
14614;DHT22;7393;51.446;6.800;2023-06-10T04:09:28;20.10;1.00
14614;DHT22;7393;51.446;6.800;2023-06-10T04:11:55;20.10;1.00
14614;DHT22;7393;51.446;6.800;2023-06-10T04:14:22;20.10;1.00
14614;DHT22;7393;51.446;6.800;2023-06-10T04:16:49;20.10;1.00
14614;DHT22;7393;51.446;6.800;2023-06-10T04:19:16;20.10;1.00
14614;DHT22;7393;51.446;6.800;2023-06-10T04:21:43;20.10;1.00
14614;DHT22;7393;51.446;6.800;2023-06-10T04:24:11;20.10;1.00
14614;DHT22;7393;51.446;6.800;2023-06-10T04:26:38;20.20;1.00
14614;DHT22;7393;51.446;6.800;2023-06-10T04:29:05;20.20;1.00
14614;DHT22;7393;51.446;6.800;2023-06-10T04:31:32;20.20;1.00
14614;DHT22;7393;51.446;6.800;2023-06-10T04:33:59;20.20;1.00
14614;DHT22;7393;51.446;6.800;2023-06-10T04:36:26;20.20;1.00
14614;DHT22;7393;51.446;6.800;2023-06-10T04:38:54;20.20;1.00
14614;DHT22;7393;51.446;6.800;2023-06-10T04:41:22;20.20;1.00
14614;DHT22;7393;51.446;6.800;2023-06-10T04:43:50;20.20;1.00
14614;DHT22;7393;51.446;6.800;2023-06-10T04:46:17;20.20;1.00
14614;DHT22;7393;51.446;6.800;2023-06-10T04:48:44;20.20;1.00
14614;DHT22;7393;51.446;6.800;2023-06-10T04:51:12;20.20;1.00
14614;DHT22;7393;51.446;6.800;2023-06-10T04:53:39;20.20;1.00
14614;DHT22;7393;51.446;6.800;2023-06-10T04:56:06;20.20;1.00
14614;DHT22;7393;51.446;6.800;2023-06-10T04:58:35;20.30;1.00
14614;DHT22;7393;51.446;6.800;2023-06-10T05:01:02;20.30;1.00
14614;DHT22;7393;51.446;6.800;2023-06-10T05:03:29;20.40;1.00
14614;DHT22;7393;51.446;6.800;2023-06-10T05:05:56;20.40;1.00
14614;DHT22;7393;51.446;6.800;2023-06-10T05:08:23;20.40;1.00
14614;DHT22;7393;51.446;6.800;2023-06-10T05:10:50;20.50;1.00
14614;DHT22;7393;51.446;6.800;2023-06-10T05:13:16;20.50;1.00
14614;DHT22;7393;51.446;6.800;2023-06-10T05:15:45;20.50;1.00
14614;DHT22;7393;51.446;6.800;2023-06-10T05:18:12;20.60;1.00
14614;DHT22;7393;51.446;6.800;2023-06-10T05:20:39;20.60;1.00
14614;DHT22;7393;51.446;6.800;2023-06-10T05:23:05;20.70;1.00
14614;DHT22;7393;51.446;6.800;2023-06-10T05:25:33;20.70;1.00
14614;DHT22;7393;51.446;6.800;2023-06-10T05:28:00;20.80;1.00
14614;DHT22;7393;51.446;6.800;2023-06-10T05:30:27;20.80;1.00
14614;DHT22;7393;51.446;6.800;2023-06-10T05:32:55;20.90;1.00
14614;DHT22;7393;51.446;6.800;2023-06-10T05:35:22;20.90;1.00
14614;DHT22;7393;51.446;6.800;2023-06-10T05:37:50;21.00;1.00
14614;DHT22;7393;51.446;6.800;2023-06-10T05:40:16;21.10;1.00
14614;DHT22;7393;51.446;6.800;2023-06-10T05:42:43;21.10;1.00
14614;DHT22;7393;51.446;6.800;2023-06-10T05:45:11;21.10;1.00
14614;DHT22;7393;51.446;6.800;2023-06-10T05:47:38;21.20;1.00
14614;DHT22;7393;51.446;6.800;2023-06-10T05:50:07;21.20;1.00
14614;DHT22;7393;51.446;6.800;2023-06-10T05:52:34;21.30;1.00
14614;DHT22;7393;51.446;6.800;2023-06-10T05:55:02;21.30;1.00
14614;DHT22;7393;51.446;6.800;2023-06-10T05:57:28;21.40;1.00
14614;DHT22;7393;51.446;6.800;2023-06-10T05:59:55;21.50;1.00
14614;DHT22;7393;51.446;6.800;2023-06-10T06:02:22;21.50;1.00
14614;DHT22;7393;51.446;6.800;2023-06-10T06:04:49;21.50;1.00
14614;DHT22;7393;51.446;6.800;2023-06-10T06:07:17;21.60;1.00
14614;DHT22;7393;51.446;6.800;2023-06-10T06:09:46;21.60;1.00
14614;DHT22;7393;51.446;6.800;2023-06-10T06:12:12;21.70;1.00
14614;DHT22;7393;51.446;6.800;2023-06-10T06:14:39;21.60;1.00
14614;DHT22;7393;51.446;6.800;2023-06-10T06:17:06;21.60;1.00
14614;DHT22;7393;51.446;6.800;2023-06-10T06:19:33;21.60;1.00
14614;DHT22;7393;51.446;6.800;2023-06-10T06:22:00;21.60;1.00
14614;DHT22;7393;51.446;6.800;2023-06-10T06:24:29;21.70;1.00
14614;DHT22;7393;51.446;6.800;2023-06-10T06:26:56;21.70;1.00
14614;DHT22;7393;51.446;6.800;2023-06-10T06:29:22;21.70;1.00
14614;DHT22;7393;51.446;6.800;2023-06-10T06:31:49;21.70;1.00
14614;DHT22;7393;51.446;6.800;2023-06-10T06:34:16;21.80;1.00
14614;DHT22;7393;51.446;6.800;2023-06-10T06:36:43;21.80;1.00
14614;DHT22;7393;51.446;6.800;2023-06-10T06:39:10;21.90;1.00
14614;DHT22;7393;51.446;6.800;2023-06-10T06:41:38;21.90;1.00
14614;DHT22;7393;51.446;6.800;2023-06-10T06:44:04;22.10;1.00
14614;DHT22;7393;51.446;6.800;2023-06-10T06:46:31;22.10;1.00
14614;DHT22;7393;51.446;6.800;2023-06-10T06:48:58;22.10;1.00
14614;DHT22;7393;51.446;6.800;2023-06-10T06:51:25;22.20;1.00
14614;DHT22;7393;51.446;6.800;2023-06-10T06:53:51;22.20;1.00
14614;DHT22;7393;51.446;6.800;2023-06-10T06:56:22;22.30;1.00
14614;DHT22;7393;51.446;6.800;2023-06-10T06:58:50;22.30;1.00
14614;DHT22;7393;51.446;6.800;2023-06-10T07:01:17;22.30;1.00
14614;DHT22;7393;51.446;6.800;2023-06-10T07:03:44;22.30;1.00
14614;DHT22;7393;51.446;6.800;2023-06-10T07:06:10;22.40;1.00
14614;DHT22;7393;51.446;6.800;2023-06-10T07:08:37;22.50;1.00
14614;DHT22;7393;51.446;6.800;2023-06-10T07:11:04;22.50;1.00
14614;DHT22;7393;51.446;6.800;2023-06-10T07:13:30;22.60;1.00
14614;DHT22;7393;51.446;6.800;2023-06-10T07:15:59;22.70;1.00
14614;DHT22;7393;51.446;6.800;2023-06-10T07:18:25;22.80;1.00
14614;DHT22;7393;51.446;6.800;2023-06-10T07:20:52;22.80;1.00
14614;DHT22;7393;51.446;6.800;2023-06-10T07:23:19;22.90;1.00
14614;DHT22;7393;51.446;6.800;2023-06-10T07:25:46;23.00;1.00
14614;DHT22;7393;51.446;6.800;2023-06-10T07:28:12;23.10;1.00
14614;DHT22;7393;51.446;6.800;2023-06-10T07:30:39;23.30;1.00
14614;DHT22;7393;51.446;6.800;2023-06-10T07:33:07;23.40;1.00
14614;DHT22;7393;51.446;6.800;2023-06-10T07:35:35;23.60;1.00
14614;DHT22;7393;51.446;6.800;2023-06-10T07:38:02;23.70;1.00
14614;DHT22;7393;51.446;6.800;2023-06-10T07:40:29;23.90;1.00
14614;DHT22;7393;51.446;6.800;2023-06-10T07:42:56;24.00;1.00
14614;DHT22;7393;51.446;6.800;2023-06-10T07:45:23;24.20;1.00
14614;DHT22;7393;51.446;6.800;2023-06-10T07:47:49;24.40;1.00
14614;DHT22;7393;51.446;6.800;2023-06-10T07:50:17;24.50;1.00
14614;DHT22;7393;51.446;6.800;2023-06-10T07:52:44;24.70;1.00
14614;DHT22;7393;51.446;6.800;2023-06-10T07:55:11;24.80;1.00
14614;DHT22;7393;51.446;6.800;2023-06-10T07:57:38;25.00;1.00
14614;DHT22;7393;51.446;6.800;2023-06-10T08:00:06;25.20;1.00
14614;DHT22;7393;51.446;6.800;2023-06-10T08:02:33;25.30;1.00
14614;DHT22;7393;51.446;6.800;2023-06-10T08:05:00;25.40;1.00
14614;DHT22;7393;51.446;6.800;2023-06-10T08:07:28;25.50;1.00
14614;DHT22;7393;51.446;6.800;2023-06-10T08:09:56;25.60;1.00
14614;DHT22;7393;51.446;6.800;2023-06-10T08:12:23;25.70;1.00
14614;DHT22;7393;51.446;6.800;2023-06-10T08:14:50;25.80;1.00
14614;DHT22;7393;51.446;6.800;2023-06-10T08:17:16;25.90;1.00
14614;DHT22;7393;51.446;6.800;2023-06-10T08:19:43;26.00;1.00
14614;DHT22;7393;51.446;6.800;2023-06-10T08:22:10;26.10;1.00
14614;DHT22;7393;51.446;6.800;2023-06-10T08:24:38;26.30;1.00
14614;DHT22;7393;51.446;6.800;2023-06-10T08:27:05;26.40;1.00
14614;DHT22;7393;51.446;6.800;2023-06-10T08:29:32;26.50;1.00
14614;DHT22;7393;51.446;6.800;2023-06-10T08:31:59;26.60;1.00
14614;DHT22;7393;51.446;6.800;2023-06-10T08:34:26;26.70;1.00
14614;DHT22;7393;51.446;6.800;2023-06-10T08:36:53;26.70;1.00
14614;DHT22;7393;51.446;6.800;2023-06-10T08:39:21;26.80;1.00
14614;DHT22;7393;51.446;6.800;2023-06-10T08:41:58;26.90;1.00
14614;DHT22;7393;51.446;6.800;2023-06-10T08:44:28;27.00;1.00
14614;DHT22;7393;51.446;6.800;2023-06-10T08:46:58;27.10;1.00
14614;DHT22;7393;51.446;6.800;2023-06-10T08:49:27;27.20;1.00
14614;DHT22;7393;51.446;6.800;2023-06-10T08:51:58;27.30;1.00
14614;DHT22;7393;51.446;6.800;2023-06-10T08:54:28;27.40;1.00
14614;DHT22;7393;51.446;6.800;2023-06-10T08:56:59;27.40;1.00
14614;DHT22;7393;51.446;6.800;2023-06-10T08:59:26;27.60;1.00
14614;DHT22;7393;51.446;6.800;2023-06-10T09:01:53;27.80;1.00
14614;DHT22;7393;51.446;6.800;2023-06-10T09:04:21;27.90;1.00
14614;DHT22;7393;51.446;6.800;2023-06-10T09:06:49;28.00;1.00
14614;DHT22;7393;51.446;6.800;2023-06-10T09:09:16;28.10;1.00
14614;DHT22;7393;51.446;6.800;2023-06-10T09:11:43;28.30;1.00
14614;DHT22;7393;51.446;6.800;2023-06-10T09:14:12;28.40;1.00
14614;DHT22;7393;51.446;6.800;2023-06-10T09:16:39;28.50;1.00
14614;DHT22;7393;51.446;6.800;2023-06-10T09:19:07;28.70;1.00
14614;DHT22;7393;51.446;6.800;2023-06-10T09:21:34;28.80;1.00
14614;DHT22;7393;51.446;6.800;2023-06-10T09:24:01;28.80;1.00
14614;DHT22;7393;51.446;6.800;2023-06-10T09:26:29;28.80;1.00
14614;DHT22;7393;51.446;6.800;2023-06-10T09:29:02;28.80;1.00
14614;DHT22;7393;51.446;6.800;2023-06-10T09:31:30;28.90;1.00
14614;DHT22;7393;51.446;6.800;2023-06-10T09:34:06;28.90;1.00
14614;DHT22;7393;51.446;6.800;2023-06-10T09:36:33;29.00;1.00
14614;DHT22;7393;51.446;6.800;2023-06-10T09:39:01;29.10;1.00
14614;DHT22;7393;51.446;6.800;2023-06-10T09:41:35;29.30;1.00
14614;DHT22;7393;51.446;6.800;2023-06-10T09:44:02;29.40;1.00
14614;DHT22;7393;51.446;6.800;2023-06-10T09:46:37;29.50;1.00
14614;DHT22;7393;51.446;6.800;2023-06-10T09:49:03;29.60;1.00
14614;DHT22;7393;51.446;6.800;2023-06-10T09:51:30;29.70;1.00
14614;DHT22;7393;51.446;6.800;2023-06-10T09:53:57;29.80;1.00
14614;DHT22;7393;51.446;6.800;2023-06-10T09:56:33;29.90;1.00
14614;DHT22;7393;51.446;6.800;2023-06-10T09:59:00;30.00;1.00
14614;DHT22;7393;51.446;6.800;2023-06-10T10:01:26;30.00;1.00
14614;DHT22;7393;51.446;6.800;2023-06-10T10:03:54;30.00;1.00
14614;DHT22;7393;51.446;6.800;2023-06-10T10:06:21;30.20;1.00
14614;DHT22;7393;51.446;6.800;2023-06-10T10:08:50;30.40;1.00
14614;DHT22;7393;51.446;6.800;2023-06-10T10:11:18;30.50;1.00
14614;DHT22;7393;51.446;6.800;2023-06-10T10:13:49;30.60;1.00
14614;DHT22;7393;51.446;6.800;2023-06-10T10:16:19;30.60;1.00
14614;DHT22;7393;51.446;6.800;2023-06-10T10:18:49;30.40;1.00
14614;DHT22;7393;51.446;6.800;2023-06-10T10:21:22;30.40;1.00
14614;DHT22;7393;51.446;6.800;2023-06-10T10:23:53;30.50;1.00
14614;DHT22;7393;51.446;6.800;2023-06-10T10:26:25;30.60;1.00
14614;DHT22;7393;51.446;6.800;2023-06-10T10:28:58;30.80;1.00
14614;DHT22;7393;51.446;6.800;2023-06-10T10:31:30;30.80;1.00
14614;DHT22;7393;51.446;6.800;2023-06-10T10:34:00;30.90;1.00
14614;DHT22;7393;51.446;6.800;2023-06-10T10:36:28;31.10;1.00
14614;DHT22;7393;51.446;6.800;2023-06-10T10:38:56;31.30;1.00
14614;DHT22;7393;51.446;6.800;2023-06-10T10:41:24;31.50;1.00
14614;DHT22;7393;51.446;6.800;2023-06-10T10:43:53;31.70;1.00
14614;DHT22;7393;51.446;6.800;2023-06-10T10:46:20;31.80;1.00
14614;DHT22;7393;51.446;6.800;2023-06-10T10:48:52;31.80;1.00
14614;DHT22;7393;51.446;6.800;2023-06-10T10:51:19;31.90;1.00
14614;DHT22;7393;51.446;6.800;2023-06-10T10:54:11;32.10;1.00
14614;DHT22;7393;51.446;6.800;2023-06-10T10:56:39;32.20;1.00
14614;DHT22;7393;51.446;6.800;2023-06-10T10:59:06;32.40;1.00
14614;DHT22;7393;51.446;6.800;2023-06-10T11:01:41;32.50;1.00
14614;DHT22;7393;51.446;6.800;2023-06-10T11:04:11;32.50;1.00
14614;DHT22;7393;51.446;6.800;2023-06-10T11:06:38;32.60;1.00
14614;DHT22;7393;51.446;6.800;2023-06-10T11:09:27;32.70;1.00
14614;DHT22;7393;51.446;6.800;2023-06-10T11:11:57;32.90;1.00
14614;DHT22;7393;51.446;6.800;2023-06-10T11:14:27;33.00;1.00
14614;DHT22;7393;51.446;6.800;2023-06-10T11:16:56;33.10;1.00
14614;DHT22;7393;51.446;6.800;2023-06-10T11:19:34;33.10;1.00
14614;DHT22;7393;51.446;6.800;2023-06-10T11:22:02;33.20;1.00
14614;DHT22;7393;51.446;6.800;2023-06-10T11:24:30;33.40;1.00
14614;DHT22;7393;51.446;6.800;2023-06-10T11:27:17;33.40;1.00
14614;DHT22;7393;51.446;6.800;2023-06-10T11:29:58;33.40;1.00
14614;DHT22;7393;51.446;6.800;2023-06-10T11:32:29;33.50;1.00
14614;DHT22;7393;51.446;6.800;2023-06-10T11:34:56;33.40;1.00
14614;DHT22;7393;51.446;6.800;2023-06-10T11:37:24;33.30;1.00
14614;DHT22;7393;51.446;6.800;2023-06-10T11:39:53;33.30;1.00
14614;DHT22;7393;51.446;6.800;2023-06-10T11:42:21;33.40;1.00
14614;DHT22;7393;51.446;6.800;2023-06-10T11:44:49;33.50;1.00
14614;DHT22;7393;51.446;6.800;2023-06-10T11:47:16;33.60;1.00
14614;DHT22;7393;51.446;6.800;2023-06-10T11:49:43;33.70;1.00
14614;DHT22;7393;51.446;6.800;2023-06-10T11:52:10;33.70;1.00
14614;DHT22;7393;51.446;6.800;2023-06-10T11:54:37;33.60;1.00
14614;DHT22;7393;51.446;6.800;2023-06-10T11:57:06;33.60;1.00
14614;DHT22;7393;51.446;6.800;2023-06-10T11:59:34;33.60;1.00
14614;DHT22;7393;51.446;6.800;2023-06-10T12:02:01;33.70;1.00
14614;DHT22;7393;51.446;6.800;2023-06-10T12:04:28;33.90;1.00
14614;DHT22;7393;51.446;6.800;2023-06-10T12:06:55;34.20;1.00
14614;DHT22;7393;51.446;6.800;2023-06-10T12:09:23;34.30;1.00
14614;DHT22;7393;51.446;6.800;2023-06-10T12:11:51;34.40;1.00
14614;DHT22;7393;51.446;6.800;2023-06-10T12:14:51;34.50;1.00
14614;DHT22;7393;51.446;6.800;2023-06-10T12:17:20;34.50;1.00
14614;DHT22;7393;51.446;6.800;2023-06-10T12:19:47;34.60;1.00
14614;DHT22;7393;51.446;6.800;2023-06-10T12:22:15;34.60;1.00
14614;DHT22;7393;51.446;6.800;2023-06-10T12:24:45;34.70;1.00
14614;DHT22;7393;51.446;6.800;2023-06-10T12:27:12;34.80;1.00
14614;DHT22;7393;51.446;6.800;2023-06-10T12:29:39;34.80;1.00
14614;DHT22;7393;51.446;6.800;2023-06-10T12:32:19;34.80;1.00
14614;DHT22;7393;51.446;6.800;2023-06-10T12:34:48;34.90;1.00
14614;DHT22;7393;51.446;6.800;2023-06-10T12:37:16;34.90;1.00
14614;DHT22;7393;51.446;6.800;2023-06-10T12:39:51;35.10;1.00
14614;DHT22;7393;51.446;6.800;2023-06-10T12:42:21;35.20;1.00
14614;DHT22;7393;51.446;6.800;2023-06-10T12:44:53;35.20;1.00
14614;DHT22;7393;51.446;6.800;2023-06-10T12:47:29;35.30;1.00
14614;DHT22;7393;51.446;6.800;2023-06-10T12:49:57;35.40;1.00
14614;DHT22;7393;51.446;6.800;2023-06-10T12:52:24;35.40;1.00
14614;DHT22;7393;51.446;6.800;2023-06-10T12:54:50;35.50;1.00
14614;DHT22;7393;51.446;6.800;2023-06-10T12:57:18;35.60;1.00
14614;DHT22;7393;51.446;6.800;2023-06-10T12:59:45;35.70;1.00
14614;DHT22;7393;51.446;6.800;2023-06-10T13:02:18;35.70;1.00
14614;DHT22;7393;51.446;6.800;2023-06-10T13:04:47;35.70;1.00
14614;DHT22;7393;51.446;6.800;2023-06-10T13:07:17;35.70;1.00
14614;DHT22;7393;51.446;6.800;2023-06-10T13:09:44;35.70;1.00
14614;DHT22;7393;51.446;6.800;2023-06-10T13:12:14;35.80;1.00
14614;DHT22;7393;51.446;6.800;2023-06-10T13:14:43;35.90;1.00
14614;DHT22;7393;51.446;6.800;2023-06-10T13:17:09;35.90;1.00
14614;DHT22;7393;51.446;6.800;2023-06-10T13:19:36;35.90;1.00
14614;DHT22;7393;51.446;6.800;2023-06-10T13:22:05;35.70;1.00
14614;DHT22;7393;51.446;6.800;2023-06-10T13:24:31;35.60;1.00
14614;DHT22;7393;51.446;6.800;2023-06-10T13:26:58;35.60;1.00
14614;DHT22;7393;51.446;6.800;2023-06-10T13:29:25;35.70;1.00
14614;DHT22;7393;51.446;6.800;2023-06-10T13:31:52;35.70;1.00
14614;DHT22;7393;51.446;6.800;2023-06-10T13:34:18;35.70;1.00
14614;DHT22;7393;51.446;6.800;2023-06-10T13:36:45;35.80;1.00
14614;DHT22;7393;51.446;6.800;2023-06-10T13:39:13;35.80;1.00
14614;DHT22;7393;51.446;6.800;2023-06-10T13:41:41;35.70;1.00
14614;DHT22;7393;51.446;6.800;2023-06-10T13:44:08;35.70;1.00
14614;DHT22;7393;51.446;6.800;2023-06-10T13:46:34;35.70;1.00
14614;DHT22;7393;51.446;6.800;2023-06-10T13:49:01;35.70;1.00
14614;DHT22;7393;51.446;6.800;2023-06-10T13:51:28;35.70;1.00
14614;DHT22;7393;51.446;6.800;2023-06-10T13:53:55;35.70;1.00
14614;DHT22;7393;51.446;6.800;2023-06-10T13:56:23;35.70;1.00
14614;DHT22;7393;51.446;6.800;2023-06-10T13:58:50;35.70;1.00
14614;DHT22;7393;51.446;6.800;2023-06-10T14:01:17;35.70;1.00
14614;DHT22;7393;51.446;6.800;2023-06-10T14:03:44;35.50;1.00
14614;DHT22;7393;51.446;6.800;2023-06-10T14:06:11;35.30;1.00
14614;DHT22;7393;51.446;6.800;2023-06-10T14:08:41;35.20;1.00
14614;DHT22;7393;51.446;6.800;2023-06-10T14:11:08;35.10;1.00
14614;DHT22;7393;51.446;6.800;2023-06-10T14:13:48;35.00;1.00
14614;DHT22;7393;51.446;6.800;2023-06-10T14:16:15;35.00;1.00
14614;DHT22;7393;51.446;6.800;2023-06-10T14:18:42;35.10;1.00
14614;DHT22;7393;51.446;6.800;2023-06-10T14:21:08;35.20;1.00
14614;DHT22;7393;51.446;6.800;2023-06-10T14:23:36;35.20;1.00
14614;DHT22;7393;51.446;6.800;2023-06-10T14:26:03;35.30;1.00
14614;DHT22;7393;51.446;6.800;2023-06-10T14:28:31;35.30;1.00
14614;DHT22;7393;51.446;6.800;2023-06-10T14:30:59;35.40;1.00
14614;DHT22;7393;51.446;6.800;2023-06-10T14:33:26;35.30;1.00
14614;DHT22;7393;51.446;6.800;2023-06-10T14:35:53;35.20;1.00
14614;DHT22;7393;51.446;6.800;2023-06-10T14:38:20;35.20;1.00
14614;DHT22;7393;51.446;6.800;2023-06-10T14:40:47;35.20;1.00
14614;DHT22;7393;51.446;6.800;2023-06-10T14:43:14;35.00;1.00
14614;DHT22;7393;51.446;6.800;2023-06-10T14:45:40;34.90;1.00
14614;DHT22;7393;51.446;6.800;2023-06-10T14:48:09;34.90;1.00
14614;DHT22;7393;51.446;6.800;2023-06-10T14:50:36;34.70;1.00
14614;DHT22;7393;51.446;6.800;2023-06-10T14:53:03;34.70;1.00
14614;DHT22;7393;51.446;6.800;2023-06-10T14:55:30;34.60;1.00
14614;DHT22;7393;51.446;6.800;2023-06-10T14:57:56;34.50;1.00
14614;DHT22;7393;51.446;6.800;2023-06-10T15:00:23;34.50;1.00
14614;DHT22;7393;51.446;6.800;2023-06-10T15:02:51;34.40;1.00
14614;DHT22;7393;51.446;6.800;2023-06-10T15:05:20;34.30;1.00
14614;DHT22;7393;51.446;6.800;2023-06-10T15:07:47;34.20;1.00
14614;DHT22;7393;51.446;6.800;2023-06-10T15:10:14;34.00;1.00
14614;DHT22;7393;51.446;6.800;2023-06-10T15:12:41;33.90;1.00
14614;DHT22;7393;51.446;6.800;2023-06-10T15:15:08;33.80;1.00
14614;DHT22;7393;51.446;6.800;2023-06-10T15:17:35;33.80;1.00
14614;DHT22;7393;51.446;6.800;2023-06-10T15:20:03;33.70;1.00
14614;DHT22;7393;51.446;6.800;2023-06-10T15:22:31;33.60;1.00
14614;DHT22;7393;51.446;6.800;2023-06-10T15:24:58;33.50;1.00
14614;DHT22;7393;51.446;6.800;2023-06-10T15:27:24;33.40;1.00
14614;DHT22;7393;51.446;6.800;2023-06-10T15:29:51;33.30;1.00
14614;DHT22;7393;51.446;6.800;2023-06-10T15:32:18;33.20;1.00
14614;DHT22;7393;51.446;6.800;2023-06-10T15:34:45;33.10;1.00
14614;DHT22;7393;51.446;6.800;2023-06-10T15:37:13;33.00;1.00
14614;DHT22;7393;51.446;6.800;2023-06-10T15:39:41;32.80;1.00
14614;DHT22;7393;51.446;6.800;2023-06-10T15:42:08;32.70;1.00
14614;DHT22;7393;51.446;6.800;2023-06-10T15:44:35;32.60;1.00
14614;DHT22;7393;51.446;6.800;2023-06-10T15:47:02;32.60;1.00
14614;DHT22;7393;51.446;6.800;2023-06-10T15:49:29;32.60;1.00
14614;DHT22;7393;51.446;6.800;2023-06-10T15:51:55;32.50;1.00
14614;DHT22;7393;51.446;6.800;2023-06-10T15:54:22;32.40;1.00
14614;DHT22;7393;51.446;6.800;2023-06-10T15:56:50;32.30;1.00
14614;DHT22;7393;51.446;6.800;2023-06-10T15:59:17;32.20;1.00
14614;DHT22;7393;51.446;6.800;2023-06-10T16:01:44;32.10;1.00
14614;DHT22;7393;51.446;6.800;2023-06-10T16:04:11;32.20;1.00
14614;DHT22;7393;51.446;6.800;2023-06-10T16:06:37;32.10;1.00